Blackshear, Georgia
Current Conditions -  °F | °C
As of 5:35 PM on Saturday 25 Oct 2014 (Local Time) from KAYS Reporting Station
Clear Clear  
Wind Chill: 26°   Ceiling: Unl
Heat Index: 26°   Visibility: 10mi
Dew Point: 10°   Wind: 5mph
Humidity: 35%   Direction: 40°NE
Pressure: 29.96"   Gusts: NA
Location:  31.31°N, 82.24°W
Report Text: KAYS 252135Z AUTO 04004KT 10SM CLR 27/10 A2996 RMK AO2 T02650099
Loading
Personal Weather Stations






























Interactive Weather Map
Tropical Storm Tracking
New forecast layout! Learn more

10-Day Weather Forecast

Advertisements
Track Severe Weather on mobile